sensor_id;sensor_type;location;lat;lon;timestamp;P1;durP1;ratioP1;P2;durP2;ratioP2
26965;SDS011;14522;52.068;4.414;2023-05-10T00:02:23;8.95;;;5.95;;
26965;SDS011;14522;52.068;4.414;2023-05-10T00:04:50;10.45;;;8.02;;
26965;SDS011;14522;52.068;4.414;2023-05-10T00:07:17;9.57;;;7.57;;
26965;SDS011;14522;52.068;4.414;2023-05-10T00:09:43;8.82;;;3.65;;
26965;SDS011;14522;52.068;4.414;2023-05-10T00:12:10;10.18;;;6.22;;
26965;SDS011;14522;52.068;4.414;2023-05-10T00:14:36;7.93;;;6.05;;
26965;SDS011;14522;52.068;4.414;2023-05-10T00:17:03;8.02;;;5.78;;
26965;SDS011;14522;52.068;4.414;2023-05-10T00:19:29;10.27;;;6.70;;
26965;SDS011;14522;52.068;4.414;2023-05-10T00:21:56;13.90;;;6.97;;
26965;SDS011;14522;52.068;4.414;2023-05-10T00:24:22;5.47;;;4.32;;
26965;SDS011;14522;52.068;4.414;2023-05-10T00:26:48;5.90;;;4.25;;
26965;SDS011;14522;52.068;4.414;2023-05-10T00:29:15;8.50;;;5.82;;
26965;SDS011;14522;52.068;4.414;2023-05-10T00:31:41;8.65;;;6.28;;
26965;SDS011;14522;52.068;4.414;2023-05-10T00:34:08;5.78;;;4.72;;
26965;SDS011;14522;52.068;4.414;2023-05-10T00:36:34;5.97;;;4.45;;
26965;SDS011;14522;52.068;4.414;2023-05-10T00:39:00;4.57;;;3.38;;
26965;SDS011;14522;52.068;4.414;2023-05-10T00:41:27;6.57;;;4.22;;
26965;SDS011;14522;52.068;4.414;2023-05-10T00:43:53;6.57;;;3.58;;
26965;SDS011;14522;52.068;4.414;2023-05-10T00:46:20;9.75;;;5.75;;
26965;SDS011;14522;52.068;4.414;2023-05-10T00:48:46;9.98;;;7.63;;
26965;SDS011;14522;52.068;4.414;2023-05-10T00:51:13;9.10;;;7.25;;
26965;SDS011;14522;52.068;4.414;2023-05-10T00:53:39;11.63;;;7.72;;
26965;SDS011;14522;52.068;4.414;2023-05-10T00:56:06;12.60;;;8.02;;
26965;SDS011;14522;52.068;4.414;2023-05-10T00:58:33;10.18;;;7.15;;
26965;SDS011;14522;52.068;4.414;2023-05-10T01:00:59;9.10;;;7.10;;
26965;SDS011;14522;52.068;4.414;2023-05-10T01:03:26;9.27;;;6.30;;
26965;SDS011;14522;52.068;4.414;2023-05-10T01:05:53;13.02;;;7.80;;
26965;SDS011;14522;52.068;4.414;2023-05-10T01:08:20;8.43;;;6.45;;
26965;SDS011;14522;52.068;4.414;2023-05-10T01:10:47;12.30;;;9.40;;
26965;SDS011;14522;52.068;4.414;2023-05-10T01:13:18;15.68;;;10.38;;
26965;SDS011;14522;52.068;4.414;2023-05-10T01:15:49;16.30;;;11.15;;
26965;SDS011;14522;52.068;4.414;2023-05-10T01:18:16;22.30;;;13.35;;
26965;SDS011;14522;52.068;4.414;2023-05-10T01:20:46;23.00;;;12.73;;
26965;SDS011;14522;52.068;4.414;2023-05-10T01:23:23;17.50;;;10.85;;
26965;SDS011;14522;52.068;4.414;2023-05-10T01:33:24;24.05;;;13.82;;
26965;SDS011;14522;52.068;4.414;2023-05-10T01:40:54;27.17;;;14.43;;
26965;SDS011;14522;52.068;4.414;2023-05-10T01:43:28;24.17;;;14.82;;
26965;SDS011;14522;52.068;4.414;2023-05-10T01:46:02;16.33;;;8.50;;
26965;SDS011;14522;52.068;4.414;2023-05-10T01:48:37;20.92;;;11.30;;
26965;SDS011;14522;52.068;4.414;2023-05-10T01:51:06;23.60;;;13.20;;
26965;SDS011;14522;52.068;4.414;2023-05-10T01:53:34;18.27;;;10.55;;
26965;SDS011;14522;52.068;4.414;2023-05-10T01:56:02;21.48;;;8.00;;
26965;SDS011;14522;52.068;4.414;2023-05-10T01:58:30;19.55;;;11.10;;
26965;SDS011;14522;52.068;4.414;2023-05-10T02:00:58;27.75;;;14.63;;
26965;SDS011;14522;52.068;4.414;2023-05-10T02:03:27;26.05;;;13.25;;
26965;SDS011;14522;52.068;4.414;2023-05-10T02:05:54;16.33;;;9.40;;
26965;SDS011;14522;52.068;4.414;2023-05-10T02:08:21;21.10;;;11.85;;
26965;SDS011;14522;52.068;4.414;2023-05-10T02:10:49;23.02;;;13.05;;
26965;SDS011;14522;52.068;4.414;2023-05-10T02:13:16;20.77;;;12.20;;
26965;SDS011;14522;52.068;4.414;2023-05-10T02:15:45;17.02;;;10.40;;
26965;SDS011;14522;52.068;4.414;2023-05-10T02:18:13;15.40;;;8.85;;
26965;SDS011;14522;52.068;4.414;2023-05-10T02:20:40;20.35;;;11.15;;
26965;SDS011;14522;52.068;4.414;2023-05-10T02:23:06;24.45;;;11.68;;
26965;SDS011;14522;52.068;4.414;2023-05-10T02:25:34;24.10;;;11.20;;
26965;SDS011;14522;52.068;4.414;2023-05-10T02:28:01;20.05;;;10.93;;
26965;SDS011;14522;52.068;4.414;2023-05-10T02:30:28;20.20;;;10.65;;
26965;SDS011;14522;52.068;4.414;2023-05-10T02:32:55;17.08;;;10.45;;
26965;SDS011;14522;52.068;4.414;2023-05-10T02:35:22;13.70;;;7.32;;
26965;SDS011;14522;52.068;4.414;2023-05-10T02:37:49;10.80;;;5.95;;
26965;SDS011;14522;52.068;4.414;2023-05-10T02:40:16;14.63;;;6.97;;
26965;SDS011;14522;52.068;4.414;2023-05-10T02:42:44;20.33;;;11.10;;
26965;SDS011;14522;52.068;4.414;2023-05-10T02:45:12;13.15;;;8.43;;
26965;SDS011;14522;52.068;4.414;2023-05-10T02:47:39;14.63;;;8.02;;
26965;SDS011;14522;52.068;4.414;2023-05-10T02:50:09;14.25;;;8.27;;
26965;SDS011;14522;52.068;4.414;2023-05-10T02:52:49;20.10;;;12.82;;
26965;SDS011;14522;52.068;4.414;2023-05-10T02:55:19;13.30;;;7.35;;
26965;SDS011;14522;52.068;4.414;2023-05-10T02:57:48;11.30;;;6.85;;
26965;SDS011;14522;52.068;4.414;2023-05-10T03:00:17;20.27;;;9.05;;
26965;SDS011;14522;52.068;4.414;2023-05-10T03:02:43;15.43;;;10.10;;
26965;SDS011;14522;52.068;4.414;2023-05-10T03:05:10;17.45;;;8.63;;
26965;SDS011;14522;52.068;4.414;2023-05-10T03:07:36;21.05;;;12.13;;
26965;SDS011;14522;52.068;4.414;2023-05-10T03:10:03;13.27;;;8.00;;
26965;SDS011;14522;52.068;4.414;2023-05-10T03:20:31;18.25;;;10.10;;
26965;SDS011;14522;52.068;4.414;2023-05-10T03:23:00;4.53;;;3.25;;
26965;SDS011;14522;52.068;4.414;2023-05-10T03:25:28;16.65;;;8.65;;
26965;SDS011;14522;52.068;4.414;2023-05-10T03:27:56;12.30;;;6.35;;
26965;SDS011;14522;52.068;4.414;2023-05-10T03:30:23;16.90;;;10.35;;
26965;SDS011;14522;52.068;4.414;2023-05-10T03:32:50;13.00;;;8.13;;
26965;SDS011;14522;52.068;4.414;2023-05-10T03:35:16;13.30;;;9.15;;
26965;SDS011;14522;52.068;4.414;2023-05-10T03:37:43;16.00;;;10.23;;
26965;SDS011;14522;52.068;4.414;2023-05-10T03:40:09;12.25;;;7.43;;
26965;SDS011;14522;52.068;4.414;2023-05-10T03:42:36;13.93;;;10.93;;
26965;SDS011;14522;52.068;4.414;2023-05-10T03:45:02;16.08;;;9.23;;
26965;SDS011;14522;52.068;4.414;2023-05-10T03:47:29;15.10;;;10.45;;
26965;SDS011;14522;52.068;4.414;2023-05-10T03:49:56;10.85;;;6.20;;
26965;SDS011;14522;52.068;4.414;2023-05-10T03:52:22;14.93;;;10.38;;
26965;SDS011;14522;52.068;4.414;2023-05-10T03:54:48;16.17;;;9.25;;
26965;SDS011;14522;52.068;4.414;2023-05-10T03:57:15;14.73;;;8.40;;
26965;SDS011;14522;52.068;4.414;2023-05-10T03:59:41;12.90;;;9.00;;
26965;SDS011;14522;52.068;4.414;2023-05-10T04:02:07;10.63;;;6.13;;
26965;SDS011;14522;52.068;4.414;2023-05-10T04:04:34;10.32;;;5.15;;
26965;SDS011;14522;52.068;4.414;2023-05-10T04:07:00;6.65;;;4.82;;
26965;SDS011;14522;52.068;4.414;2023-05-10T04:09:27;10.27;;;6.75;;
26965;SDS011;14522;52.068;4.414;2023-05-10T04:11:53;8.60;;;4.97;;
26965;SDS011;14522;52.068;4.414;2023-05-10T04:14:19;17.23;;;9.18;;
26965;SDS011;14522;52.068;4.414;2023-05-10T04:16:46;8.40;;;5.22;;
26965;SDS011;14522;52.068;4.414;2023-05-10T04:19:12;8.95;;;6.18;;
26965;SDS011;14522;52.068;4.414;2023-05-10T04:21:39;17.45;;;10.25;;
26965;SDS011;14522;52.068;4.414;2023-05-10T04:24:05;11.82;;;7.53;;
26965;SDS011;14522;52.068;4.414;2023-05-10T04:26:31;13.98;;;9.00;;
26965;SDS011;14522;52.068;4.414;2023-05-10T04:28:58;6.05;;;3.88;;
26965;SDS011;14522;52.068;4.414;2023-05-10T04:31:24;18.20;;;10.13;;
26965;SDS011;14522;52.068;4.414;2023-05-10T04:33:51;16.52;;;11.38;;
26965;SDS011;14522;52.068;4.414;2023-05-10T04:36:17;12.38;;;7.65;;
26965;SDS011;14522;52.068;4.414;2023-05-10T04:38:43;13.80;;;8.13;;
26965;SDS011;14522;52.068;4.414;2023-05-10T04:41:10;12.23;;;7.05;;
26965;SDS011;14522;52.068;4.414;2023-05-10T04:43:37;11.35;;;7.20;;
26965;SDS011;14522;52.068;4.414;2023-05-10T04:46:04;10.30;;;5.80;;
26965;SDS011;14522;52.068;4.414;2023-05-10T04:48:30;8.65;;;4.38;;
26965;SDS011;14522;52.068;4.414;2023-05-10T04:50:57;7.18;;;4.32;;
26965;SDS011;14522;52.068;4.414;2023-05-10T04:53:23;5.38;;;3.08;;
26965;SDS011;14522;52.068;4.414;2023-05-10T04:55:50;7.95;;;4.13;;
26965;SDS011;14522;52.068;4.414;2023-05-10T04:58:16;6.68;;;3.75;;
26965;SDS011;14522;52.068;4.414;2023-05-10T05:00:42;10.73;;;5.32;;
26965;SDS011;14522;52.068;4.414;2023-05-10T05:03:10;9.05;;;4.50;;
26965;SDS011;14522;52.068;4.414;2023-05-10T05:05:36;9.45;;;4.32;;
26965;SDS011;14522;52.068;4.414;2023-05-10T05:08:03;7.97;;;4.72;;
26965;SDS011;14522;52.068;4.414;2023-05-10T05:10:29;5.90;;;3.03;;
26965;SDS011;14522;52.068;4.414;2023-05-10T05:12:56;6.35;;;3.35;;
26965;SDS011;14522;52.068;4.414;2023-05-10T05:15:22;4.10;;;2.53;;
26965;SDS011;14522;52.068;4.414;2023-05-10T05:17:48;8.38;;;4.45;;
26965;SDS011;14522;52.068;4.414;2023-05-10T05:20:15;5.93;;;3.47;;
26965;SDS011;14522;52.068;4.414;2023-05-10T05:22:42;8.05;;;4.53;;
26965;SDS011;14522;52.068;4.414;2023-05-10T05:25:08;5.13;;;2.92;;
26965;SDS011;14522;52.068;4.414;2023-05-10T05:27:35;6.30;;;3.95;;
26965;SDS011;14522;52.068;4.414;2023-05-10T05:30:02;9.40;;;4.40;;
26965;SDS011;14522;52.068;4.414;2023-05-10T05:32:28;8.63;;;4.80;;
26965;SDS011;14522;52.068;4.414;2023-05-10T05:34:54;9.55;;;5.00;;
26965;SDS011;14522;52.068;4.414;2023-05-10T05:37:21;5.93;;;4.15;;
26965;SDS011;14522;52.068;4.414;2023-05-10T05:39:48;10.25;;;6.00;;
26965;SDS011;14522;52.068;4.414;2023-05-10T05:42:15;7.88;;;4.47;;
26965;SDS011;14522;52.068;4.414;2023-05-10T05:44:42;5.53;;;3.75;;
26965;SDS011;14522;52.068;4.414;2023-05-10T05:47:09;4.20;;;3.35;;
26965;SDS011;14522;52.068;4.414;2023-05-10T05:49:35;3.33;;;2.33;;
26965;SDS011;14522;52.068;4.414;2023-05-10T05:52:02;3.13;;;2.00;;
26965;SDS011;14522;52.068;4.414;2023-05-10T05:54:30;4.88;;;3.13;;
26965;SDS011;14522;52.068;4.414;2023-05-10T05:56:57;6.20;;;3.90;;
26965;SDS011;14522;52.068;4.414;2023-05-10T05:59:26;3.72;;;2.55;;
26965;SDS011;14522;52.068;4.414;2023-05-10T06:01:52;3.67;;;2.90;;
26965;SDS011;14522;52.068;4.414;2023-05-10T06:04:19;3.15;;;2.53;;
26965;SDS011;14522;52.068;4.414;2023-05-10T06:06:45;3.75;;;2.80;;
26965;SDS011;14522;52.068;4.414;2023-05-10T06:09:12;4.38;;;2.80;;
26965;SDS011;14522;52.068;4.414;2023-05-10T06:11:38;2.90;;;2.47;;
26965;SDS011;14522;52.068;4.414;2023-05-10T06:14:05;4.00;;;2.28;;
26965;SDS011;14522;52.068;4.414;2023-05-10T06:16:33;3.50;;;2.35;;
26965;SDS011;14522;52.068;4.414;2023-05-10T06:19:00;6.13;;;3.08;;
26965;SDS011;14522;52.068;4.414;2023-05-10T06:21:26;5.72;;;2.75;;
26965;SDS011;14522;52.068;4.414;2023-05-10T06:23:53;5.78;;;2.80;;
26965;SDS011;14522;52.068;4.414;2023-05-10T06:26:19;4.07;;;2.70;;
26965;SDS011;14522;52.068;4.414;2023-05-10T06:28:47;3.00;;;2.00;;
26965;SDS011;14522;52.068;4.414;2023-05-10T06:31:13;2.38;;;1.90;;
26965;SDS011;14522;52.068;4.414;2023-05-10T06:33:39;6.65;;;3.30;;
26965;SDS011;14522;52.068;4.414;2023-05-10T06:36:06;6.45;;;2.38;;
26965;SDS011;14522;52.068;4.414;2023-05-10T06:38:33;7.47;;;3.00;;
26965;SDS011;14522;52.068;4.414;2023-05-10T06:40:59;4.50;;;3.05;;
26965;SDS011;14522;52.068;4.414;2023-05-10T06:43:25;9.68;;;5.50;;
26965;SDS011;14522;52.068;4.414;2023-05-10T06:45:52;6.63;;;3.35;;
26965;SDS011;14522;52.068;4.414;2023-05-10T06:48:18;5.55;;;1.77;;
26965;SDS011;14522;52.068;4.414;2023-05-10T06:50:45;4.95;;;2.05;;
26965;SDS011;14522;52.068;4.414;2023-05-10T06:53:12;5.47;;;3.15;;
26965;SDS011;14522;52.068;4.414;2023-05-10T06:55:39;2.55;;;1.60;;
26965;SDS011;14522;52.068;4.414;2023-05-10T06:58:05;11.07;;;4.65;;
26965;SDS011;14522;52.068;4.414;2023-05-10T07:00:32;8.43;;;4.30;;
26965;SDS011;14522;52.068;4.414;2023-05-10T07:02:58;7.65;;;3.90;;
26965;SDS011;14522;52.068;4.414;2023-05-10T07:05:25;2.65;;;1.27;;
26965;SDS011;14522;52.068;4.414;2023-05-10T07:07:54;6.05;;;3.00;;
26965;SDS011;14522;52.068;4.414;2023-05-10T07:10:20;6.10;;;3.30;;
26965;SDS011;14522;52.068;4.414;2023-05-10T07:12:46;4.63;;;3.08;;
26965;SDS011;14522;52.068;4.414;2023-05-10T07:15:13;6.22;;;3.30;;
26965;SDS011;14522;52.068;4.414;2023-05-10T07:17:40;3.72;;;2.05;;
26965;SDS011;14522;52.068;4.414;2023-05-10T07:20:10;4.18;;;1.98;;
26965;SDS011;14522;52.068;4.414;2023-05-10T07:22:36;4.32;;;2.42;;
26965;SDS011;14522;52.068;4.414;2023-05-10T07:25:03;5.05;;;2.33;;
26965;SDS011;14522;52.068;4.414;2023-05-10T07:27:29;3.15;;;1.85;;
26965;SDS011;14522;52.068;4.414;2023-05-10T07:29:56;3.72;;;2.30;;
26965;SDS011;14522;52.068;4.414;2023-05-10T07:32:22;4.43;;;2.72;;
26965;SDS011;14522;52.068;4.414;2023-05-10T07:34:49;8.70;;;3.97;;
26965;SDS011;14522;52.068;4.414;2023-05-10T07:37:15;3.03;;;1.85;;
26965;SDS011;14522;52.068;4.414;2023-05-10T07:39:42;2.88;;;1.40;;
26965;SDS011;14522;52.068;4.414;2023-05-10T07:42:11;2.40;;;1.85;;
26965;SDS011;14522;52.068;4.414;2023-05-10T07:44:38;4.45;;;2.67;;
26965;SDS011;14522;52.068;4.414;2023-05-10T07:47:04;4.53;;;2.03;;
26965;SDS011;14522;52.068;4.414;2023-05-10T07:49:30;3.80;;;2.35;;
26965;SDS011;14522;52.068;4.414;2023-05-10T07:51:57;2.50;;;1.63;;
26965;SDS011;14522;52.068;4.414;2023-05-10T07:54:23;6.57;;;2.53;;
26965;SDS011;14522;52.068;4.414;2023-05-10T07:56:50;2.85;;;2.10;;
26965;SDS011;14522;52.068;4.414;2023-05-10T07:59:17;4.60;;;2.70;;
26965;SDS011;14522;52.068;4.414;2023-05-10T08:01:43;4.50;;;2.90;;
26965;SDS011;14522;52.068;4.414;2023-05-10T08:04:10;6.97;;;2.30;;
26965;SDS011;14522;52.068;4.414;2023-05-10T08:06:37;3.97;;;2.13;;
26965;SDS011;14522;52.068;4.414;2023-05-10T08:09:04;3.53;;;2.47;;
26965;SDS011;14522;52.068;4.414;2023-05-10T08:11:30;5.40;;;2.58;;
26965;SDS011;14522;52.068;4.414;2023-05-10T08:14:00;3.33;;;2.13;;
26965;SDS011;14522;52.068;4.414;2023-05-10T08:16:26;3.75;;;2.30;;
26965;SDS011;14522;52.068;4.414;2023-05-10T08:18:52;3.00;;;2.20;;
26965;SDS011;14522;52.068;4.414;2023-05-10T08:21:21;4.20;;;2.55;;
26965;SDS011;14522;52.068;4.414;2023-05-10T08:23:48;3.20;;;1.75;;
26965;SDS011;14522;52.068;4.414;2023-05-10T08:26:15;2.38;;;2.03;;
26965;SDS011;14522;52.068;4.414;2023-05-10T08:28:41;4.60;;;2.20;;
26965;SDS011;14522;52.068;4.414;2023-05-10T08:31:08;2.53;;;1.38;;
26965;SDS011;14522;52.068;4.414;2023-05-10T08:33:36;2.10;;;1.48;;
26965;SDS011;14522;52.068;4.414;2023-05-10T08:36:02;2.70;;;2.05;;
26965;SDS011;14522;52.068;4.414;2023-05-10T08:38:29;6.03;;;3.83;;
26965;SDS011;14522;52.068;4.414;2023-05-10T08:40:55;3.30;;;2.47;;
26965;SDS011;14522;52.068;4.414;2023-05-10T08:43:26;3.97;;;2.17;;
26965;SDS011;14522;52.068;4.414;2023-05-10T08:45:53;3.70;;;2.00;;
26965;SDS011;14522;52.068;4.414;2023-05-10T08:48:20;3.58;;;2.35;;
26965;SDS011;14522;52.068;4.414;2023-05-10T08:50:48;3.45;;;1.92;;
26965;SDS011;14522;52.068;4.414;2023-05-10T08:53:14;4.55;;;2.20;;
26965;SDS011;14522;52.068;4.414;2023-05-10T08:55:42;4.22;;;2.45;;
26965;SDS011;14522;52.068;4.414;2023-05-10T08:58:09;4.07;;;3.30;;
26965;SDS011;14522;52.068;4.414;2023-05-10T09:00:36;4.70;;;3.38;;
26965;SDS011;14522;52.068;4.414;2023-05-10T09:03:04;2.90;;;2.10;;
26965;SDS011;14522;52.068;4.414;2023-05-10T09:05:30;4.90;;;2.92;;
26965;SDS011;14522;52.068;4.414;2023-05-10T09:07:57;7.65;;;3.85;;
26965;SDS011;14522;52.068;4.414;2023-05-10T09:10:24;7.55;;;4.60;;
26965;SDS011;14522;52.068;4.414;2023-05-10T09:12:52;4.22;;;2.58;;
26965;SDS011;14522;52.068;4.414;2023-05-10T09:15:19;6.78;;;2.90;;
26965;SDS011;14522;52.068;4.414;2023-05-10T09:17:46;3.10;;;2.08;;
26965;SDS011;14522;52.068;4.414;2023-05-10T09:20:13;7.13;;;3.53;;
26965;SDS011;14522;52.068;4.414;2023-05-10T09:22:39;7.30;;;4.20;;
26965;SDS011;14522;52.068;4.414;2023-05-10T09:25:09;6.93;;;3.42;;
26965;SDS011;14522;52.068;4.414;2023-05-10T09:27:38;8.02;;;5.28;;
26965;SDS011;14522;52.068;4.414;2023-05-10T09:30:05;15.30;;;5.78;;
26965;SDS011;14522;52.068;4.414;2023-05-10T09:32:39;8.68;;;5.28;;
26965;SDS011;14522;52.068;4.414;2023-05-10T09:35:10;7.53;;;4.25;;
26965;SDS011;14522;52.068;4.414;2023-05-10T09:37:38;10.82;;;5.05;;
26965;SDS011;14522;52.068;4.414;2023-05-10T09:40:06;10.23;;;5.57;;
26965;SDS011;14522;52.068;4.414;2023-05-10T09:42:34;7.13;;;3.58;;
26965;SDS011;14522;52.068;4.414;2023-05-10T09:45:03;8.65;;;4.18;;
26965;SDS011;14522;52.068;4.414;2023-05-10T09:47:36;8.23;;;4.63;;
26965;SDS011;14522;52.068;4.414;2023-05-10T09:50:03;6.75;;;4.07;;
26965;SDS011;14522;52.068;4.414;2023-05-10T09:52:31;8.57;;;4.43;;
26965;SDS011;14522;52.068;4.414;2023-05-10T09:55:11;15.23;;;6.20;;
26965;SDS011;14522;52.068;4.414;2023-05-10T09:57:38;9.57;;;5.20;;
26965;SDS011;14522;52.068;4.414;2023-05-10T10:00:05;11.55;;;5.38;;
26965;SDS011;14522;52.068;4.414;2023-05-10T10:02:32;12.85;;;5.68;;
26965;SDS011;14522;52.068;4.414;2023-05-10T10:05:00;12.15;;;5.88;;
26965;SDS011;14522;52.068;4.414;2023-05-10T10:07:27;9.02;;;4.35;;
26965;SDS011;14522;52.068;4.414;2023-05-10T10:09:53;6.93;;;3.28;;
26965;SDS011;14522;52.068;4.414;2023-05-10T10:12:20;5.30;;;2.20;;
26965;SDS011;14522;52.068;4.414;2023-05-10T10:14:47;8.45;;;3.88;;
26965;SDS011;14522;52.068;4.414;2023-05-10T10:17:14;6.70;;;4.15;;
26965;SDS011;14522;52.068;4.414;2023-05-10T10:19:40;8.38;;;4.28;;
26965;SDS011;14522;52.068;4.414;2023-05-10T10:22:07;10.70;;;5.57;;
26965;SDS011;14522;52.068;4.414;2023-05-10T10:24:33;6.72;;;2.95;;
26965;SDS011;14522;52.068;4.414;2023-05-10T10:27:45;12.70;;;7.03;;
26965;SDS011;14522;52.068;4.414;2023-05-10T10:29:59;11.43;;;5.72;;
26965;SDS011;14522;52.068;4.414;2023-05-10T10:34:54;12.27;;;6.30;;
26965;SDS011;14522;52.068;4.414;2023-05-10T10:37:21;7.95;;;4.88;;
26965;SDS011;14522;52.068;4.414;2023-05-10T10:39:48;8.35;;;4.53;;
26965;SDS011;14522;52.068;4.414;2023-05-10T10:42:32;14.10;;;5.82;;
26965;SDS011;14522;52.068;4.414;2023-05-10T10:45:11;8.38;;;4.38;;
26965;SDS011;14522;52.068;4.414;2023-05-10T10:47:38;5.65;;;2.92;;
26965;SDS011;14522;52.068;4.414;2023-05-10T10:50:05;9.27;;;3.63;;
26965;SDS011;14522;52.068;4.414;2023-05-10T10:52:36;6.38;;;4.20;;
26965;SDS011;14522;52.068;4.414;2023-05-10T10:57:49;5.20;;;2.80;;
26965;SDS011;14522;52.068;4.414;2023-05-10T11:00:26;8.57;;;4.50;;
26965;SDS011;14522;52.068;4.414;2023-05-10T11:03:06;7.93;;;4.15;;
26965;SDS011;14522;52.068;4.414;2023-05-10T11:10:35;8.15;;;3.63;;
26965;SDS011;14522;52.068;4.414;2023-05-10T11:13:03;8.35;;;4.90;;
26965;SDS011;14522;52.068;4.414;2023-05-10T11:15:34;8.57;;;5.60;;
26965;SDS011;14522;52.068;4.414;2023-05-10T11:18:19;6.43;;;3.72;;
26965;SDS011;14522;52.068;4.414;2023-05-10T11:23:14;10.07;;;5.55;;
26965;SDS011;14522;52.068;4.414;2023-05-10T11:25:42;6.80;;;4.85;;
26965;SDS011;14522;52.068;4.414;2023-05-10T11:28:10;10.90;;;5.15;;
26965;SDS011;14522;52.068;4.414;2023-05-10T11:30:40;5.45;;;3.80;;
26965;SDS011;14522;52.068;4.414;2023-05-10T11:33:07;9.70;;;6.03;;
26965;SDS011;14522;52.068;4.414;2023-05-10T11:35:40;6.28;;;4.18;;
26965;SDS011;14522;52.068;4.414;2023-05-10T11:38:11;9.15;;;5.55;;
26965;SDS011;14522;52.068;4.414;2023-05-10T11:40:38;8.63;;;4.55;;
26965;SDS011;14522;52.068;4.414;2023-05-10T11:43:05;8.05;;;4.90;;
26965;SDS011;14522;52.068;4.414;2023-05-10T11:45:32;9.82;;;5.50;;
26965;SDS011;14522;52.068;4.414;2023-05-10T11:47:59;5.68;;;2.90;;
26965;SDS011;14522;52.068;4.414;2023-05-10T11:50:25;7.20;;;4.43;;
26965;SDS011;14522;52.068;4.414;2023-05-10T11:52:53;10.65;;;5.28;;
26965;SDS011;14522;52.068;4.414;2023-05-10T11:55:19;9.75;;;4.85;;
26965;SDS011;14522;52.068;4.414;2023-05-10T11:57:46;5.68;;;4.07;;
26965;SDS011;14522;52.068;4.414;2023-05-10T12:00:13;6.30;;;3.88;;
26965;SDS011;14522;52.068;4.414;2023-05-10T12:02:40;5.53;;;3.05;;
26965;SDS011;14522;52.068;4.414;2023-05-10T12:05:07;7.50;;;4.15;;
26965;SDS011;14522;52.068;4.414;2023-05-10T12:07:34;4.93;;;2.85;;
26965;SDS011;14522;52.068;4.414;2023-05-10T12:12:45;9.45;;;5.13;;
26965;SDS011;14522;52.068;4.414;2023-05-10T12:15:18;5.70;;;3.67;;
26965;SDS011;14522;52.068;4.414;2023-05-10T12:17:45;6.40;;;3.53;;
26965;SDS011;14522;52.068;4.414;2023-05-10T12:20:19;9.18;;;5.57;;
26965;SDS011;14522;52.068;4.414;2023-05-10T12:22:49;7.55;;;3.47;;
26965;SDS011;14522;52.068;4.414;2023-05-10T12:25:17;6.00;;;3.67;;
26965;SDS011;14522;52.068;4.414;2023-05-10T12:27:54;6.80;;;3.63;;
26965;SDS011;14522;52.068;4.414;2023-05-10T12:30:39;10.83;;;6.10;;
26965;SDS011;14522;52.068;4.414;2023-05-10T12:33:12;9.60;;;5.75;;
26965;SDS011;14522;52.068;4.414;2023-05-10T12:35:45;12.32;;;5.85;;
26965;SDS011;14522;52.068;4.414;2023-05-10T12:40:57;9.10;;;5.00;;
26965;SDS011;14522;52.068;4.414;2023-05-10T12:43:24;13.10;;;6.40;;
26965;SDS011;14522;52.068;4.414;2023-05-10T12:45:51;5.75;;;2.72;;
26965;SDS011;14522;52.068;4.414;2023-05-10T12:48:17;6.88;;;3.75;;
26965;SDS011;14522;52.068;4.414;2023-05-10T12:50:44;6.80;;;4.07;;
26965;SDS011;14522;52.068;4.414;2023-05-10T12:53:10;9.80;;;4.93;;
26965;SDS011;14522;52.068;4.414;2023-05-10T12:55:36;6.93;;;3.95;;
26965;SDS011;14522;52.068;4.414;2023-05-10T12:58:03;10.20;;;4.90;;
26965;SDS011;14522;52.068;4.414;2023-05-10T13:00:29;8.15;;;3.88;;
26965;SDS011;14522;52.068;4.414;2023-05-10T13:02:56;9.13;;;4.82;;
26965;SDS011;14522;52.068;4.414;2023-05-10T13:05:22;6.70;;;3.65;;
26965;SDS011;14522;52.068;4.414;2023-05-10T13:07:48;6.05;;;3.67;;
26965;SDS011;14522;52.068;4.414;2023-05-10T13:10:15;6.60;;;4.43;;
26965;SDS011;14522;52.068;4.414;2023-05-10T13:12:42;5.00;;;3.25;;
26965;SDS011;14522;52.068;4.414;2023-05-10T13:15:08;5.30;;;2.85;;
26965;SDS011;14522;52.068;4.414;2023-05-10T13:17:35;3.63;;;2.15;;
26965;SDS011;14522;52.068;4.414;2023-05-10T13:20:01;3.35;;;2.63;;
26965;SDS011;14522;52.068;4.414;2023-05-10T13:22:28;2.72;;;2.22;;
26965;SDS011;14522;52.068;4.414;2023-05-10T13:25:05;5.45;;;2.90;;
26965;SDS011;14522;52.068;4.414;2023-05-10T13:27:32;4.18;;;2.85;;
26965;SDS011;14522;52.068;4.414;2023-05-10T13:29:58;4.93;;;2.17;;
26965;SDS011;14522;52.068;4.414;2023-05-10T13:32:25;2.42;;;2.13;;
26965;SDS011;14522;52.068;4.414;2023-05-10T13:34:52;2.80;;;1.67;;
26965;SDS011;14522;52.068;4.414;2023-05-10T13:37:18;3.33;;;2.13;;
26965;SDS011;14522;52.068;4.414;2023-05-10T13:39:44;3.17;;;1.80;;
26965;SDS011;14522;52.068;4.414;2023-05-10T13:42:11;1.85;;;1.30;;
26965;SDS011;14522;52.068;4.414;2023-05-10T13:44:37;4.43;;;1.45;;
26965;SDS011;14522;52.068;4.414;2023-05-10T13:47:05;1.63;;;1.33;;
26965;SDS011;14522;52.068;4.414;2023-05-10T13:49:31;8.00;;;2.15;;
26965;SDS011;14522;52.068;4.414;2023-05-10T13:51:57;1.77;;;1.25;;
26965;SDS011;14522;52.068;4.414;2023-05-10T13:54:24;2.25;;;1.20;;
26965;SDS011;14522;52.068;4.414;2023-05-10T13:56:51;5.78;;;2.60;;
26965;SDS011;14522;52.068;4.414;2023-05-10T13:59:17;2.45;;;1.83;;
26965;SDS011;14522;52.068;4.414;2023-05-10T14:01:44;2.65;;;1.95;;
26965;SDS011;14522;52.068;4.414;2023-05-10T14:04:10;5.60;;;2.42;;
26965;SDS011;14522;52.068;4.414;2023-05-10T14:06:38;4.15;;;2.40;;
26965;SDS011;14522;52.068;4.414;2023-05-10T14:09:05;2.33;;;1.42;;
26965;SDS011;14522;52.068;4.414;2023-05-10T14:11:31;3.53;;;1.95;;
26965;SDS011;14522;52.068;4.414;2023-05-10T14:13:57;3.08;;;1.92;;
26965;SDS011;14522;52.068;4.414;2023-05-10T14:16:24;4.07;;;2.22;;
26965;SDS011;14522;52.068;4.414;2023-05-10T14:18:50;3.78;;;2.15;;
26965;SDS011;14522;52.068;4.414;2023-05-10T14:21:17;4.72;;;2.92;;
26965;SDS011;14522;52.068;4.414;2023-05-10T14:23:43;3.78;;;2.40;;
26965;SDS011;14522;52.068;4.414;2023-05-10T14:26:09;2.58;;;1.50;;
26965;SDS011;14522;52.068;4.414;2023-05-10T14:28:36;4.85;;;2.80;;
26965;SDS011;14522;52.068;4.414;2023-05-10T14:31:02;2.63;;;2.05;;
26965;SDS011;14522;52.068;4.414;2023-05-10T14:33:29;3.50;;;2.28;;
26965;SDS011;14522;52.068;4.414;2023-05-10T14:35:55;4.13;;;2.67;;
26965;SDS011;14522;52.068;4.414;2023-05-10T14:38:23;6.18;;;3.20;;
26965;SDS011;14522;52.068;4.414;2023-05-10T14:40:49;3.75;;;2.38;;
26965;SDS011;14522;52.068;4.414;2023-05-10T14:43:16;3.63;;;3.00;;
26965;SDS011;14522;52.068;4.414;2023-05-10T14:45:42;3.38;;;2.15;;
26965;SDS011;14522;52.068;4.414;2023-05-10T14:48:08;2.92;;;2.10;;
26965;SDS011;14522;52.068;4.414;2023-05-10T14:50:38;3.88;;;2.10;;
26965;SDS011;14522;52.068;4.414;2023-05-10T14:53:05;4.90;;;3.38;;
26965;SDS011;14522;52.068;4.414;2023-05-10T14:55:32;4.47;;;2.55;;
26965;SDS011;14522;52.068;4.414;2023-05-10T14:57:58;2.28;;;1.95;;
26965;SDS011;14522;52.068;4.414;2023-05-10T15:00:26;3.58;;;1.85;;
26965;SDS011;14522;52.068;4.414;2023-05-10T15:02:53;2.20;;;1.75;;
26965;SDS011;14522;52.068;4.414;2023-05-10T15:05:20;2.72;;;1.63;;
26965;SDS011;14522;52.068;4.414;2023-05-10T15:07:47;4.45;;;1.95;;
26965;SDS011;14522;52.068;4.414;2023-05-10T15:10:14;3.17;;;1.50;;
26965;SDS011;14522;52.068;4.414;2023-05-10T15:12:40;3.35;;;1.60;;
26965;SDS011;14522;52.068;4.414;2023-05-10T15:15:07;2.88;;;1.63;;
26965;SDS011;14522;52.068;4.414;2023-05-10T15:17:33;2.38;;;1.85;;
26965;SDS011;14522;52.068;4.414;2023-05-10T15:20:00;2.65;;;2.00;;
26965;SDS011;14522;52.068;4.414;2023-05-10T15:22:29;3.67;;;2.17;;
26965;SDS011;14522;52.068;4.414;2023-05-10T15:24:59;3.58;;;1.77;;